Terminal Aerodrome Forecast
Issued by NWS Cleveland, OH

Home | Current Version | Previous Version | Text Only | Print | Product List | Glossary On
Versions: 1 2 3 4 5 6 7 8 9 10 11 12 13 14 15 16 17 18 19 20 21 22 23
000
FTUS41 KCLE 012333
TAFCLE
TAF
KCLE 012333Z 0200/0306 20003KT P6SM VCSH SCT040 BKN100
     FM020200 20003KT P6SM SCT200
      TEMPO 0210/0213 4SM BR
     FM021400 24005KT P6SM SKC
     FM021800 32008KT P6SM SCT050=

USA.gov is the U.S. government's official web portal to all federal, state and local government web resources and services.